Blandville, Kentucky
Current Conditions -  °F | °C
As of 11:53 PM on Friday 28 Nov 2014 (Local Time) from KPAH Reporting Station
Clear Clear  
Wind Chill: 41°   Ceiling: Unl
Heat Index: 44°   Visibility: 10mi
Dew Point: 29°   Wind: 6mph
Humidity: 55%   Direction: 200°SSW
Pressure: 30.03"   Gusts: NA
Location:  36.9684°N, 88.9802°W
Report Text: KPAH 290553Z AUTO 20005KT 10SM CLR 07/M02 A3003 RMK AO2 SLP169 T00671017 10067 20050 400891033 58005
Loading
Personal Weather Stations






























Interactive Weather Map New forecast layout! Learn more

10-Day Weather Forecast

Advertisements
Track Severe Weather on mobile